Irene V — J8PS4 — position and weather

sailwx.info

Track history (hours):
 
Tides and Currents Weather Stations Pressure Air Temp Water Temp Dewpoint Dewpoint Depression Visibility Wind Speed Wind Dir Waves Ship Positions

Irene V

Last reported at 2016-Jul-27 19:08 UTC. Time now 2016-Jul-27 21:07 UTC.
Position N 17°44' W 063°04'.

Length 72 m; draft 5.7 m.

Type: Cargo ship. MMSI: 377924000.

Date/timePositionNaut miles runAvg speedWind from/ knotsBaromVisibWave heightAir tempDewpointWater temp
2016-Jul-27 19:08N 17°44' W 063°04'4 7.1
2016-Jul-27 18:31N 17°48' W 063°03'7 6.9
2016-Jul-27 17:33N 17°55' W 063°03'5 1.3
2016-Jul-27 13:20N 18°00' W 063°03'0 0.0
2016-Jul-27 10:27N 18°00' W 063°03'0 0.0
2016-Jul-27 09:27N 18°00' W 063°03'0 0.0
2016-Jul-27 05:33N 18°00' W 063°03'0 0.0
2016-Jul-27 04:32N 18°00' W 063°03'2 0.1
2016-Jul-26 16:33N 17°60' W 063°04'17 8.6
2016-Jul-26 14:33N 17°43' W 063°10'  
2016-Jul-21 13:30N 10°47' W 061°52'1010.6
2016-Jul-21 12:33N 10°41' W 061°44'5 5.0
2016-Jul-21 11:33N 10°40' W 061°38'0 0.0
2016-Jul-21 10:33N 10°40' W 061°38'0 0.1
2016-Jul-21 09:33N 10°40' W 061°38'0 0.0
2016-Jul-21 08:33N 10°40' W 061°38'0 0.0
2016-Jul-21 07:33N 10°40' W 061°38'0 0.1
2016-Jul-21 06:33N 10°40' W 061°38'0 0.0
2016-Jul-21 05:33N 10°40' W 061°38'0 0.1
2016-Jul-21 04:33N 10°40' W 061°38'0 0.0
2016-Jul-21 03:33N 10°40' W 061°38'0 0.0
2016-Jul-21 02:33N 10°40' W 061°38'0 0.0
2016-Jul-21 01:34N 10°40' W 061°38'0 0.0
2016-Jul-21 00:33N 10°40' W 061°38'0 0.0
2016-Jul-20 23:33N 10°40' W 061°38'1 0.8
2016-Jul-20 22:33N 10°39' W 061°39'1 0.8
2016-Jul-20 21:33N 10°40' W 061°38'0 0.0
2016-Jul-20 20:33N 10°40' W 061°38'0 0.0
2016-Jul-20 19:33N 10°40' W 061°38'0 0.0
2016-Jul-20 18:33N 10°40' W 061°38'0 0.0
2016-Jul-20 17:33N 10°40' W 061°38'0 0.0
2016-Jul-20 16:33N 10°40' W 061°38'0 0.1
2016-Jul-20 15:33N 10°40' W 061°38'0 0.0
2016-Jul-20 14:33N 10°40' W 061°38'0 0.0
2016-Jul-20 13:33N 10°40' W 061°38'0 0.0
2016-Jul-20 12:33N 10°40' W 061°38'0 0.0
2016-Jul-20 11:33N 10°40' W 061°38'0 0.0
2016-Jul-20 10:33N 10°40' W 061°38'0 0.1
2016-Jul-20 09:34N 10°40' W 061°38'0 0.0
2016-Jul-20 08:33N 10°40' W 061°38'0 0.0
2016-Jul-20 07:33N 10°40' W 061°38'0 0.0
2016-Jul-20 06:34N 10°40' W 061°38'0 0.0
2016-Jul-20 05:33N 10°40' W 061°38'0 0.1
2016-Jul-20 04:33N 10°40' W 061°38'0 0.0
2016-Jul-20 03:33N 10°40' W 061°38'0 0.1
2016-Jul-20 02:33N 10°40' W 061°38'0 0.0
2016-Jul-20 01:33N 10°40' W 061°38'0 0.0
2016-Jul-20 00:33N 10°40' W 061°38'0 0.0
2016-Jul-19 23:33N 10°40' W 061°38'0 0.0
2016-Jul-19 22:33N 10°40' W 061°38'0 0.1
2016-Jul-19 21:33N 10°40' W 061°38'0 0.1
2016-Jul-19 20:33N 10°40' W 061°38'0 0.0
2016-Jul-19 19:33N 10°40' W 061°38'0 0.0
2016-Jul-19 18:33N 10°40' W 061°38'0 0.0
2016-Jul-19 17:33N 10°40' W 061°38'0 0.0
2016-Jul-19 16:33N 10°40' W 061°38'0 0.0
2016-Jul-19 15:33N 10°40' W 061°38'0 0.1
2016-Jul-19 14:33N 10°40' W 061°38'0 0.0
2016-Jul-19 13:33N 10°40' W 061°38'0 0.0
2016-Jul-19 12:33N 10°40' W 061°38'0 0.3
2016-Jul-19 11:33N 10°40' W 061°39'1 0.5
2016-Jul-19 10:33N 10°41' W 061°39'0 0.0
2016-Jul-19 09:33N 10°41' W 061°39'0 0.0
2016-Jul-19 08:33N 10°41' W 061°39'0 0.0
2016-Jul-19 07:33N 10°41' W 061°39'0 0.0
2016-Jul-19 04:33N 10°41' W 061°39'0 0.0
2016-Jul-19 03:33N 10°41' W 061°39'0 0.0
2016-Jul-19 02:33N 10°41' W 061°39'0 0.0
2016-Jul-19 01:33N 10°41' W 061°39'0 0.0
2016-Jul-19 00:33N 10°41' W 061°39'0 0.0
2016-Jul-18 23:33N 10°41' W 061°39'0 0.0
2016-Jul-18 22:33N 10°41' W 061°39'0 0.0
2016-Jul-18 21:33N 10°41' W 061°39'0 0.0
2016-Jul-18 20:33N 10°41' W 061°39'0 0.0
2016-Jul-18 19:34N 10°41' W 061°39'0 0.0
2016-Jul-18 18:33N 10°41' W 061°39'0 0.0
2016-Jul-18 17:33N 10°41' W 061°39'0 0.0
2016-Jul-18 16:33N 10°41' W 061°39'0 0.0
2016-Jul-18 15:33N 10°41' W 061°39'0 0.0
2016-Jul-18 14:33N 10°41' W 061°39'0 0.0
2016-Jul-18 13:33N 10°41' W 061°39'0 0.0
2016-Jul-18 12:33N 10°41' W 061°39'0 0.0
2016-Jul-18 11:33N 10°41' W 061°39'0 0.2
2016-Jul-18 10:33N 10°41' W 061°39'2 1.7
2016-Jul-18 09:33N 10°39' W 061°39'1 0.5
2016-Jul-18 08:33N 10°39' W 061°40'6 6.4
2016-Jul-18 07:33N 10°39' W 061°46'8 7.5
2016-Jul-18 06:33N 10°46' W 061°50'  
Track history (hours):
 
Tides and Currents Weather Stations Pressure Air Temp Water Temp Dewpoint Dewpoint Depression Visibility Wind Speed Wind Dir Waves Ship Positions

Irene V

Last reported at 2016-Jul-27 19:08 UTC. Time now 2016-Jul-27 21:07 UTC.
Position N 17°44' W 063°04'.

Length 72 m; draft 5.7 m.

Type: Cargo ship. MMSI: 377924000.

Date/timePositionNaut miles runAvg speedWind from/ knotsBaromVisibWave heightAir tempDewpointWater temp
2016-Jul-27 19:08N 17°44' W 063°04'4 7.1
2016-Jul-27 18:31N 17°48' W 063°03'7 6.9
2016-Jul-27 17:33N 17°55' W 063°03'5 1.3
2016-Jul-27 13:20N 18°00' W 063°03'0 0.0
2016-Jul-27 10:27N 18°00' W 063°03'0 0.0
2016-Jul-27 09:27N 18°00' W 063°03'0 0.0
2016-Jul-27 05:33N 18°00' W 063°03'0 0.0
2016-Jul-27 04:32N 18°00' W 063°03'2 0.1
2016-Jul-26 16:33N 17°60' W 063°04'17 8.6
2016-Jul-26 14:33N 17°43' W 063°10'  
2016-Jul-21 13:30N 10°47' W 061°52'1010.6
2016-Jul-21 12:33N 10°41' W 061°44'5 5.0
2016-Jul-21 11:33N 10°40' W 061°38'0 0.0
2016-Jul-21 10:33N 10°40' W 061°38'0 0.1
2016-Jul-21 09:33N 10°40' W 061°38'0 0.0
2016-Jul-21 08:33N 10°40' W 061°38'0 0.0
2016-Jul-21 07:33N 10°40' W 061°38'0 0.1
2016-Jul-21 06:33N 10°40' W 061°38'0 0.0
2016-Jul-21 05:33N 10°40' W 061°38'0 0.1
2016-Jul-21 04:33N 10°40' W 061°38'0 0.0
2016-Jul-21 03:33N 10°40' W 061°38'0 0.0
2016-Jul-21 02:33N 10°40' W 061°38'0 0.0
2016-Jul-21 01:34N 10°40' W 061°38'0 0.0
2016-Jul-21 00:33N 10°40' W 061°38'0 0.0
2016-Jul-20 23:33N 10°40' W 061°38'1 0.8
2016-Jul-20 22:33N 10°39' W 061°39'1 0.8
2016-Jul-20 21:33N 10°40' W 061°38'0 0.0
2016-Jul-20 20:33N 10°40' W 061°38'0 0.0
2016-Jul-20 19:33N 10°40' W 061°38'0 0.0
2016-Jul-20 18:33N 10°40' W 061°38'0 0.0
2016-Jul-20 17:33N 10°40' W 061°38'0 0.0
2016-Jul-20 16:33N 10°40' W 061°38'0 0.1
2016-Jul-20 15:33N 10°40' W 061°38'0 0.0
2016-Jul-20 14:33N 10°40' W 061°38'0 0.0
2016-Jul-20 13:33N 10°40' W 061°38'0 0.0
2016-Jul-20 12:33N 10°40' W 061°38'0 0.0
2016-Jul-20 11:33N 10°40' W 061°38'0 0.0
2016-Jul-20 10:33N 10°40' W 061°38'0 0.1
2016-Jul-20 09:34N 10°40' W 061°38'0 0.0
2016-Jul-20 08:33N 10°40' W 061°38'0 0.0
2016-Jul-20 07:33N 10°40' W 061°38'0 0.0
2016-Jul-20 06:34N 10°40' W 061°38'0 0.0
2016-Jul-20 05:33N 10°40' W 061°38'0 0.1
2016-Jul-20 04:33N 10°40' W 061°38'0 0.0
2016-Jul-20 03:33N 10°40' W 061°38'0 0.1
2016-Jul-20 02:33N 10°40' W 061°38'0 0.0
2016-Jul-20 01:33N 10°40' W 061°38'0 0.0
2016-Jul-20 00:33N 10°40' W 061°38'0 0.0
2016-Jul-19 23:33N 10°40' W 061°38'0 0.0
2016-Jul-19 22:33N 10°40' W 061°38'0 0.1
2016-Jul-19 21:33N 10°40' W 061°38'0 0.1
2016-Jul-19 20:33N 10°40' W 061°38'0 0.0
2016-Jul-19 19:33N 10°40' W 061°38'0 0.0
2016-Jul-19 18:33N 10°40' W 061°38'0 0.0
2016-Jul-19 17:33N 10°40' W 061°38'0 0.0
2016-Jul-19 16:33N 10°40' W 061°38'0 0.0
2016-Jul-19 15:33N 10°40' W 061°38'0 0.1
2016-Jul-19 14:33N 10°40' W 061°38'0 0.0
2016-Jul-19 13:33N 10°40' W 061°38'0 0.0
2016-Jul-19 12:33N 10°40' W 061°38'0 0.3
2016-Jul-19 11:33N 10°40' W 061°39'1 0.5
2016-Jul-19 10:33N 10°41' W 061°39'0 0.0
2016-Jul-19 09:33N 10°41' W 061°39'0 0.0
2016-Jul-19 08:33N 10°41' W 061°39'0 0.0
2016-Jul-19 07:33N 10°41' W 061°39'0 0.0
2016-Jul-19 04:33N 10°41' W 061°39'0 0.0
2016-Jul-19 03:33N 10°41' W 061°39'0 0.0
2016-Jul-19 02:33N 10°41' W 061°39'0 0.0
2016-Jul-19 01:33N 10°41' W 061°39'0 0.0
2016-Jul-19 00:33N 10°41' W 061°39'0 0.0
2016-Jul-18 23:33N 10°41' W 061°39'0 0.0
2016-Jul-18 22:33N 10°41' W 061°39'0 0.0
2016-Jul-18 21:33N 10°41' W 061°39'0 0.0
2016-Jul-18 20:33N 10°41' W 061°39'0 0.0
2016-Jul-18 19:34N 10°41' W 061°39'0 0.0
2016-Jul-18 18:33N 10°41' W 061°39'0 0.0
2016-Jul-18 17:33N 10°41' W 061°39'0 0.0
2016-Jul-18 16:33N 10°41' W 061°39'0 0.0
2016-Jul-18 15:33N 10°41' W 061°39'0 0.0
2016-Jul-18 14:33N 10°41' W 061°39'0 0.0
2016-Jul-18 13:33N 10°41' W 061°39'0 0.0
2016-Jul-18 12:33N 10°41' W 061°39'0 0.0
2016-Jul-18 11:33N 10°41' W 061°39'0 0.2
2016-Jul-18 10:33N 10°41' W 061°39'2 1.7
2016-Jul-18 09:33N 10°39' W 061°39'1 0.5
2016-Jul-18 08:33N 10°39' W 061°40'6 6.4
2016-Jul-18 07:33N 10°39' W 061°46'8 7.5
2016-Jul-18 06:33N 10°46' W 061°50'  

Dump ship's entire track history